Terminal Aerodrome Forecast
Issued by NWS

Home | Current Version | Previous Version | Text Only | Print | Product List | Glossary On
Versions: 1 2 3 4 5 6 7 8 9 10 11 12 13 14 15
000
FTUS45 KRIW 271100
TAFLND
TAF
KLND 271125Z 2712/2812 VRB05KT P6SM -RA SCT006 OVC015
      TEMPO 2712/2716 5SM -RA BR BKN006
     FM271700 VRB05KT P6SM SCT015 BKN025
     FM272100 VRB05KT P6SM SCT030 BKN050
     FM280200 VRB05KT P6SM FEW050
     FM280600 25006KT P6SM VCFG SCT005=

USA.gov is the U.S. government's official web portal to all federal, state and local government web resources and services.